createdAt,value
2019-05-05T01:54:47.926Z,96751.21
2019-05-05T04:33:51.026Z,96766.59
2019-05-05T04:38:58.355Z,96771.52
2019-05-05T04:45:01.080Z,96784.36
2019-05-05T04:50:37.740Z,96793.66
2019-05-05T04:56:04.228Z,96798.45
2019-05-05T05:01:31.178Z,96800.26
2019-05-05T05:06:31.122Z,96808.22
2019-05-05T05:11:47.400Z,96804.96
2019-05-05T05:16:48.357Z,96820.77
2019-05-05T05:22:01.333Z,96822.15
2019-05-05T05:27:10.199Z,96811.59
2019-05-05T05:32:50.685Z,96820.28
2019-05-05T05:38:46.047Z,96831.17
2019-05-05T05:44:27.999Z,96833.73
2019-05-05T05:50:26.336Z,96836.14
2019-05-05T05:56:04.395Z,96854.66
2019-05-05T06:01:04.456Z,96860.21
2019-05-05T06:06:46.187Z,96867.59
2019-05-05T06:11:50.267Z,96876.00
2019-05-05T06:16:46.607Z,96878.46
2019-05-05T06:22:08.322Z,96892.95
2019-05-05T06:27:06.343Z,96897.63
2019-05-05T06:32:04.028Z,96903.98
2019-05-05T06:36:59.747Z,96911.67
2019-05-05T06:42:07.295Z,96923.03
2019-05-05T06:47:08.527Z,96934.44
2019-05-05T06:52:05.281Z,96942.05
2019-05-05T06:57:01.620Z,96948.05
2019-05-05T07:02:04.028Z,96947.59
2019-05-05T07:06:58.228Z,96944.50
2019-05-05T07:11:54.391Z,96954.01
2019-05-05T07:17:18.317Z,96956.84
2019-05-05T07:22:17.286Z,96965.19
2019-05-05T07:27:13.902Z,96960.00
2019-05-05T07:32:09.540Z,96970.66
2019-05-05T07:37:05.611Z,96969.95
2019-05-05T07:42:01.683Z,96974.98
2019-05-05T07:46:58.916Z,96968.02
2019-05-05T07:51:54.949Z,96966.65
2019-05-05T07:56:50.841Z,96959.48
2019-05-05T08:01:46.924Z,96966.06
2019-05-05T08:06:44.506Z,96962.80
2019-05-05T08:11:40.339Z,96954.81
2019-05-05T08:16:55.061Z,96948.50
2019-05-05T08:21:51.041Z,96953.83
2019-05-05T08:27:01.024Z,96954.38
2019-05-05T08:32:10.386Z,96961.33
2019-05-05T08:37:06.349Z,96962.53
2019-05-05T08:42:04.133Z,96969.30
2019-05-05T08:46:59.810Z,96964.50
2019-05-05T08:51:55.759Z,96969.56
2019-05-05T08:56:51.620Z,96969.85
2019-05-05T09:01:47.445Z,96968.59
2019-05-05T09:06:43.860Z,96976.46
2019-05-05T09:11:40.365Z,96977.36
2019-05-05T09:16:39.515Z,96981.53
2019-05-05T09:21:35.343Z,96984.70
2019-05-05T09:26:51.022Z,96981.56
2019-05-05T09:31:46.962Z,96979.62
2019-05-05T09:36:50.375Z,96984.56
2019-05-05T09:41:48.636Z,96992.30
2019-05-05T09:46:49.551Z,96997.96
2019-05-05T09:51:48.441Z,97002.61
2019-05-05T09:56:44.621Z,97004.40
2019-05-05T10:01:40.885Z,97009.69
2019-05-05T10:06:37.300Z,97000.30
2019-05-05T10:11:34.954Z,96994.22
2019-05-05T10:16:31.371Z,97002.95
2019-05-05T10:21:28.394Z,97005.73
2019-05-05T10:26:24.625Z,97008.00
2019-05-05T10:31:24.293Z,97005.22
2019-05-05T10:36:25.838Z,97009.69
2019-05-05T10:41:23.803Z,97005.00
2019-05-05T10:46:19.948Z,97002.12
2019-05-05T10:51:18.878Z,96997.19
2019-05-05T10:56:14.830Z,97002.77
2019-05-05T11:01:15.014Z,96997.97
2019-05-05T11:06:13.603Z,96995.66
2019-05-05T11:11:13.825Z,97005.59
2019-05-05T11:16:24.780Z,97008.16
2019-05-05T11:21:34.169Z,97009.83
2019-05-05T11:26:45.071Z,97002.44
2019-05-05T11:31:40.504Z,97000.13
2019-05-05T11:36:54.433Z,97008.86
2019-05-05T11:42:43.776Z,97009.40
2019-05-05T11:47:44.391Z,97014.69
2019-05-05T11:52:40.971Z,97009.31
2019-05-05T11:57:57.695Z,97013.02
2019-05-05T12:03:29.914Z,97007.95
2019-05-05T12:08:26.301Z,97005.22
2019-05-05T12:13:22.684Z,97000.63
2019-05-05T12:18:25.091Z,97004.97
2019-05-05T12:23:39.789Z,97009.35
2019-05-05T12:28:51.770Z,97024.20
2019-05-05T12:34:05.388Z,97019.41
2019-05-05T12:39:05.081Z,97028.45
2019-05-05T12:44:34.079Z,97025.43
2019-05-05T12:49:30.220Z,97025.08
2019-05-05T12:54:33.535Z,97024.95
2019-05-05T12:59:31.060Z,97024.81
2019-05-05T13:04:37.791Z,97027.78
2019-05-05T13:15:44.313Z,97036.81
2019-05-05T13:21:15.471Z,97034.50
2019-05-05T13:26:23.572Z,97027.14
2019-05-05T13:31:21.776Z,97020.71
2019-05-05T13:36:20.665Z,97018.33
2019-05-05T13:41:20.051Z,97004.28
2019-05-05T13:46:27.447Z,97012.56
2019-05-05T13:51:56.914Z,97009.36
2019-05-05T13:56:54.634Z,97025.08
2019-05-05T14:01:54.005Z,97024.05
2019-05-05T14:06:59.758Z,97014.88
2019-05-05T14:12:04.165Z,97014.83
2019-05-05T14:17:07.413Z,97014.53
2019-05-05T14:23:09.767Z,97004.03
2019-05-05T14:28:43.843Z,97002.87
2019-05-05T14:34:11.388Z,96992.17
2019-05-05T14:40:04.615Z,96999.44
2019-05-05T14:44:45.043Z,96997.20
2019-05-05T14:50:40.506Z,97002.88
2019-05-05T14:55:45.378Z,97009.23
2019-05-05T15:00:49.636Z,96995.95
2019-05-05T15:07:49.446Z,97010.02
2019-05-05T15:13:05.487Z,97023.52
2019-05-05T15:18:10.121Z,97022.42
2019-05-05T15:23:06.616Z,97021.16
2019-05-05T15:28:13.957Z,97020.79
2019-05-05T15:33:56.270Z,97031.33
2019-05-05T15:45:43.933Z,97039.91
2019-05-05T15:50:39.781Z,97053.89
2019-05-05T15:55:35.783Z,97065.66
2019-05-05T16:00:33.644Z,97068.38
2019-05-05T16:05:29.355Z,97056.52
2019-05-05T16:10:25.330Z,97055.08
2019-05-05T16:15:49.301Z,97059.37
2019-05-05T16:20:49.377Z,97052.73
2019-05-05T16:25:47.038Z,97052.07
2019-05-05T16:30:44.442Z,97054.52
2019-05-05T16:35:40.641Z,97053.41
2019-05-05T16:40:36.389Z,97058.13
2019-05-05T16:45:34.032Z,97062.39
2019-05-05T16:50:29.916Z,97065.66
2019-05-05T16:55:34.514Z,97071.06
2019-05-05T17:00:30.969Z,97080.01
2019-05-05T17:05:27.251Z,97078.52
2019-05-05T17:10:24.470Z,97079.06
2019-05-05T17:15:35.218Z,97079.08
2019-05-05T17:20:38.019Z,97084.23
2019-05-05T17:25:34.351Z,97097.70
2019-05-05T17:30:30.226Z,97091.74
2019-05-05T17:35:26.103Z,97095.30
2019-05-05T17:40:28.226Z,97093.16
2019-05-05T17:45:49.254Z,97096.20
2019-05-05T17:51:16.729Z,97098.93
2019-05-05T17:56:13.530Z,97105.56
2019-05-05T18:01:09.336Z,97108.28
2019-05-05T18:06:14.360Z,97108.02
2019-05-05T18:11:17.005Z,97108.02
2019-05-05T18:16:14.009Z,97107.57
2019-05-05T18:21:09.967Z,97121.48
2019-05-05T18:26:05.946Z,97120.84
2019-05-05T18:31:01.744Z,97128.94
2019-05-05T18:35:57.579Z,97133.33
2019-05-05T18:40:55.127Z,97139.76
2019-05-05T18:46:01.725Z,97141.07
2019-05-05T18:50:57.538Z,97144.02
2019-05-05T18:55:54.388Z,97155.19
2019-05-05T19:01:00.999Z,97156.08
2019-05-05T19:06:24.561Z,97162.12
2019-05-05T19:24:22.448Z,97175.05
2019-05-05T19:25:19.616Z,97169.97
2019-05-05T19:30:25.651Z,97180.23
2019-05-05T19:42:24.011Z,97191.03
2019-05-05T19:48:24.520Z,97193.48
2019-05-05T20:00:46.756Z,97204.78
2019-05-05T20:06:14.176Z,97217.78
2019-05-05T20:24:57.690Z,97208.54
2019-05-05T20:56:27.515Z,97206.19
2019-05-05T21:02:47.696Z,97198.17
2019-05-05T21:08:49.546Z,97193.43
2019-05-05T21:14:14.601Z,97195.66
2019-05-05T21:26:54.689Z,97205.36
2019-05-05T21:32:37.610Z,97202.16
2019-05-05T21:38:04.748Z,97204.52
2019-05-05T21:43:45.312Z,97201.61
2019-05-05T21:49:13.610Z,97207.18
2019-05-05T21:55:13.916Z,97203.52
2019-05-05T22:01:53.917Z,97212.84
2019-05-05T22:07:33.623Z,97201.53
2019-05-05T22:12:54.964Z,97203.61
2019-05-05T22:18:41.392Z,97202.16
2019-05-05T22:23:50.952Z,97206.89
2019-05-05T22:29:24.645Z,97208.59
2019-05-05T22:34:56.775Z,97213.21
